Slater, CO (81653)

12:18 AM MDT on November 01, 2014 (GMT -0600)
Dixon AP, Dixon, WY | Change Station
CLOSE
Current Station
Airport
Location: Dixon AP, Dixon, WY,
Elevation: 6549 ft
Nearby Weather Stations
Active Advisory: Special Statement

Elev 6549 ft 41.04 °N, 107.49 °W | Updated 23 minutes ago

Clear
Clear
43 °F
Feels Like 43 °F
N
0
Wind Variable Wind from North

Today
High -- | Low -- °F
--% Chance of Precip.
Yesterday
High -- | Low -- °F
Precip. -- in
7:40 AM 6:05 PM
Waxing Gibbous, 63% visible
Pressure 30.07 in
Visibility 10.0 miles
Clouds Clear
Dew Point 28 °F
Humidity 54%
Rainfall 0.00 in
Snow Depth Not available.
UV 0 out of 12
Pollen 2.00 out of 12
Air Quality Not available.
Flu Activity Not available.
METAR KDWX 010555Z AUTO 00000KT 10SM CLR 06/M02 A3007 RMK AO2 T00631023 10319 21070

More Conditions Fewer Conditions

Pressure 30.07 in
Visibility 10.0 miles
Clouds Clear
Dew Point 28 °F
Humidity 54%
Rainfall 0.00 in
Snow Depth Not available.
UV 0 out of 12
Pollen 2.00 out of 12
Air Quality Not available.
Flu Activity Not available.
METAR KDWX 010555Z AUTO 00000KT 10SM CLR 06/M02 A3007 RMK AO2 T00631023 10319 21070

More Conditions Fewer Conditions

10-Day Weather Forecast

Almanac

Astronomy

Nov. 01, 2014 Rise Set
Actual Time
Civil Twilight
Nautical Twilight
Astronomical Twilight
Moon
Length of Visible Light
Length of Day
Tomorrow will be .
, % of the Moon is Illuminated

Today's Extremes

State Highs State Lows

Community

WunderPhotos

Upload Photos

1,766,866 photos uploaded!

WunderBlogs® & News

Nearby

Air Quality

  Air Quality AQ Index Pollutant
Not available.

Snow Depth

Station Depth Elevation

Earthquake Activity

City Distance Mag. Time & Date
Minimum magnitude displayed is 2.5.

Coastal Water Temperatures

Place Temperature

Nearby Weather Stations